createdAt,value
2016-09-11T00:00:22.527Z,955.55
2016-09-11T00:01:26.253Z,955.57
2016-09-11T00:02:22.001Z,955.56
2016-09-11T00:03:23.403Z,955.62
2016-09-11T00:04:19.004Z,955.58
2016-09-11T00:05:27.934Z,955.59
2016-09-11T00:06:17.853Z,955.62
2016-09-11T00:07:31.338Z,955.65
2016-09-11T00:08:23.945Z,955.63
2016-09-11T00:09:21.466Z,955.63
2016-09-11T00:10:31.478Z,955.63
2016-09-11T00:11:20.179Z,955.64
2016-09-11T00:12:31.664Z,955.63
2016-09-11T00:13:20.873Z,955.59
2016-09-11T00:14:20.208Z,955.60
2016-09-11T00:15:27.654Z,955.56
2016-09-11T00:16:22.669Z,955.58
2016-09-11T00:17:23.112Z,955.61
2016-09-11T00:18:22.603Z,955.59
2016-09-11T00:19:33.499Z,955.59
2016-09-11T00:20:21.093Z,955.62
2016-09-11T00:21:32.388Z,955.59
2016-09-11T00:22:24.099Z,955.59
2016-09-11T00:23:20.441Z,955.59
2016-09-11T00:24:27.848Z,955.58
2016-09-11T00:25:17.517Z,955.58
2016-09-11T00:26:22.293Z,955.58
2016-09-11T00:27:17.386Z,955.57
2016-09-11T00:28:25.390Z,955.55
2016-09-11T00:29:18.573Z,955.60
2016-09-11T00:30:19.603Z,955.58
2016-09-11T00:31:20.837Z,955.60
2016-09-11T00:32:23.306Z,955.62
2016-09-11T00:33:19.318Z,955.58
2016-09-11T00:34:29.257Z,955.58
2016-09-11T00:35:20.375Z,955.62
2016-09-11T00:36:37.990Z,955.58
2016-09-11T00:37:27.934Z,955.58
2016-09-11T00:38:22.529Z,955.61
2016-09-11T00:39:17.830Z,955.56
2016-09-11T00:40:21.315Z,955.57
2016-09-11T00:41:20.815Z,955.58
2016-09-11T00:42:27.732Z,955.55
2016-09-11T00:43:20.334Z,955.54
2016-09-11T00:44:17.862Z,955.55
2016-09-11T00:45:22.171Z,955.57
2016-09-11T00:46:31.499Z,955.59
2016-09-11T00:47:20.755Z,955.57
2016-09-11T00:48:23.064Z,955.57
2016-09-11T00:49:14.318Z,955.61
2016-09-11T00:50:23.514Z,955.57
2016-09-11T00:51:22.419Z,955.57
2016-09-11T00:52:28.369Z,955.58
2016-09-11T00:53:25.448Z,955.58
2016-09-11T00:54:25.106Z,955.59
2016-09-11T00:55:22.803Z,955.58
2016-09-11T00:56:21.437Z,955.62
2016-09-11T00:57:23.361Z,955.61
2016-09-11T00:58:38.237Z,955.61
2016-09-11T00:59:24.028Z,955.61
2016-09-11T01:00:22.950Z,955.59
2016-09-11T01:01:18.532Z,955.65
2016-09-11T01:02:36.018Z,955.63
2016-09-11T01:03:15.347Z,955.61
2016-09-11T01:04:32.859Z,955.64
2016-09-11T01:05:28.668Z,955.66
2016-09-11T01:06:20.992Z,955.64
2016-09-11T01:07:25.908Z,955.73
2016-09-11T01:08:23.467Z,955.73
2016-09-11T01:09:21.438Z,955.71
2016-09-11T01:10:17.955Z,955.71
2016-09-11T01:11:21.785Z,955.69
2016-09-11T01:12:15.099Z,955.70
2016-09-11T01:13:31.840Z,955.71
2016-09-11T01:14:26.592Z,955.72
2016-09-11T01:15:30.537Z,955.72
2016-09-11T01:16:27.621Z,955.71
2016-09-11T01:17:21.713Z,955.73
2016-09-11T01:18:21.996Z,955.77
2016-09-11T01:19:27.526Z,955.78
2016-09-11T01:20:24.172Z,955.77
2016-09-11T01:21:21.004Z,955.79
2016-09-11T01:22:23.886Z,955.76
2016-09-11T01:23:18.662Z,955.80
2016-09-11T01:24:18.273Z,955.78
2016-09-11T01:25:18.133Z,955.82
2016-09-11T01:26:27.646Z,955.76
2016-09-11T01:27:31.901Z,955.82
2016-09-11T01:28:21.560Z,955.77
2016-09-11T01:29:26.292Z,955.74
2016-09-11T01:30:25.562Z,955.79
2016-09-11T01:31:22.863Z,955.79
2016-09-11T01:32:25.696Z,955.80
2016-09-11T01:33:16.703Z,955.84
2016-09-11T01:34:27.766Z,955.83
2016-09-11T01:35:29.597Z,955.83
2016-09-11T01:36:21.460Z,955.82
2016-09-11T01:37:31.060Z,955.83
2016-09-11T01:38:19.195Z,955.84
2016-09-11T01:39:26.968Z,955.84
2016-09-11T01:40:31.557Z,955.85
2016-09-11T01:41:26.373Z,955.84
2016-09-11T01:42:15.052Z,955.88
2016-09-11T01:43:22.098Z,955.88
2016-09-11T01:44:28.545Z,955.87
2016-09-11T01:45:30.506Z,955.84
2016-09-11T01:46:32.083Z,955.93
2016-09-11T01:47:29.695Z,955.92
2016-09-11T01:48:26.029Z,955.90
2016-09-11T01:49:33.001Z,955.90
2016-09-11T01:50:16.920Z,955.88
2016-09-11T01:51:24.502Z,955.93
2016-09-11T01:52:27.447Z,955.90
2016-09-11T01:53:35.868Z,955.95
2016-09-11T01:54:21.256Z,955.92
2016-09-11T01:55:31.190Z,955.90
2016-09-11T01:56:17.308Z,955.93
2016-09-11T01:57:27.858Z,955.91
2016-09-11T01:58:17.005Z,955.91
2016-09-11T01:59:17.394Z,955.95
2016-09-11T02:00:19.763Z,955.96
2016-09-11T02:01:20.258Z,955.91
2016-09-11T02:02:24.683Z,955.92
2016-09-11T02:03:36.821Z,955.97
2016-09-11T02:04:28.253Z,955.94
2016-09-11T02:05:31.982Z,955.94
2016-09-11T02:06:22.883Z,955.95
2016-09-11T02:07:24.210Z,955.96
2016-09-11T02:08:16.744Z,955.93
2016-09-11T02:09:25.351Z,955.98
2016-09-11T02:10:21.052Z,956.01
2016-09-11T02:11:30.614Z,955.98
2016-09-11T02:12:21.624Z,955.98
2016-09-11T02:13:16.880Z,955.98
2016-09-11T02:14:17.195Z,955.97
2016-09-11T02:15:21.717Z,955.98
2016-09-11T02:16:24.582Z,955.95
2016-09-11T02:17:32.788Z,955.94
2016-09-11T02:18:34.760Z,955.92
2016-09-11T02:19:19.484Z,955.90
2016-09-11T02:20:27.990Z,955.97
2016-09-11T02:21:32.926Z,955.94
2016-09-11T02:22:33.536Z,955.91
2016-09-11T02:23:18.196Z,955.98
2016-09-11T02:24:26.676Z,955.89
2016-09-11T02:25:21.271Z,955.90
2016-09-11T02:26:26.733Z,955.92
2016-09-11T02:27:25.891Z,955.93
2016-09-11T02:28:32.618Z,955.91
2016-09-11T02:29:22.732Z,955.86
2016-09-11T02:30:22.738Z,955.89
2016-09-11T02:31:27.743Z,955.92
2016-09-11T02:32:20.798Z,955.92
2016-09-11T02:33:33.925Z,955.91
2016-09-11T02:34:34.905Z,955.88
2016-09-11T02:35:33.337Z,955.91
2016-09-11T02:36:26.265Z,955.89
2016-09-11T02:37:18.696Z,955.89
2016-09-11T02:38:19.878Z,955.87
2016-09-11T02:39:27.888Z,955.86
2016-09-11T02:40:16.873Z,955.91
2016-09-11T02:41:26.924Z,955.87
2016-09-11T02:42:27.962Z,955.90
2016-09-11T02:43:26.960Z,955.86
2016-09-11T02:44:25.614Z,955.84
2016-09-11T02:45:28.358Z,955.85
2016-09-11T02:46:16.380Z,955.88
2016-09-11T02:47:32.401Z,955.86
2016-09-11T02:48:22.258Z,955.89
2016-09-11T02:49:23.371Z,955.87
2016-09-11T02:50:24.728Z,955.87
2016-09-11T02:51:21.359Z,955.87
2016-09-11T02:52:20.856Z,955.85
2016-09-11T02:53:25.038Z,955.90
2016-09-11T02:54:33.109Z,955.90
2016-09-11T02:55:17.808Z,955.88
2016-09-11T02:56:21.537Z,955.90
2016-09-11T02:57:27.993Z,955.89
2016-09-11T02:58:33.295Z,955.89
2016-09-11T02:59:33.095Z,955.91
2016-09-11T03:00:21.324Z,955.92
2016-09-11T03:01:23.117Z,955.91
2016-09-11T03:02:28.174Z,955.95
2016-09-11T03:03:32.541Z,955.92
2016-09-11T03:04:33.368Z,955.96
2016-09-11T03:05:22.999Z,955.93
2016-09-11T03:06:31.396Z,955.96
2016-09-11T03:07:27.706Z,955.94
2016-09-11T03:08:32.747Z,955.98
2016-09-11T03:09:24.050Z,955.99
2016-09-11T03:10:16.387Z,956.01
2016-09-11T03:11:14.858Z,955.97
2016-09-11T03:12:28.831Z,955.99
2016-09-11T03:13:24.283Z,955.97
2016-09-11T03:14:31.966Z,956.00
2016-09-11T03:15:20.075Z,956.02
2016-09-11T03:16:26.303Z,956.01
2016-09-11T03:17:21.787Z,956.01
2016-09-11T03:18:16.233Z,956.03
2016-09-11T03:19:27.260Z,956.02
2016-09-11T03:20:28.329Z,955.99
2016-09-11T03:21:21.686Z,956.02
2016-09-11T03:22:28.655Z,956.03
2016-09-11T03:23:19.489Z,956.06
2016-09-11T03:24:31.797Z,956.02
2016-09-11T03:25:30.013Z,955.98
2016-09-11T03:26:26.064Z,956.01
2016-09-11T03:27:24.695Z,956.02
2016-09-11T03:28:14.053Z,956.07
2016-09-11T03:29:28.010Z,956.03
2016-09-11T03:30:25.234Z,956.05
2016-09-11T03:31:23.234Z,956.03
2016-09-11T03:32:29.229Z,956.06
2016-09-11T03:33:19.927Z,956.03
2016-09-11T03:34:27.686Z,956.06
2016-09-11T03:35:20.559Z,956.06
2016-09-11T03:36:26.225Z,956.02
2016-09-11T03:37:31.293Z,956.00
2016-09-11T03:38:20.681Z,956.06
2016-09-11T03:39:30.436Z,956.07
2016-09-11T03:40:27.865Z,956.08
2016-09-11T03:41:24.491Z,956.05
2016-09-11T03:42:28.282Z,956.06
2016-09-11T03:43:29.248Z,956.03
2016-09-11T03:44:21.851Z,955.99
2016-09-11T03:45:23.188Z,956.00
2016-09-11T03:46:19.415Z,956.01
2016-09-11T03:47:20.771Z,955.99
2016-09-11T03:48:36.614Z,956.01
2016-09-11T03:49:28.337Z,955.99
2016-09-11T03:50:22.428Z,955.99
2016-09-11T03:51:24.556Z,955.98
2016-09-11T03:52:22.830Z,955.96
2016-09-11T03:53:28.400Z,955.96
2016-09-11T03:54:29.419Z,955.96
2016-09-11T03:55:36.007Z,956.00
2016-09-11T03:56:31.462Z,955.99
2016-09-11T03:57:33.849Z,956.02
2016-09-11T03:58:25.537Z,956.02
2016-09-11T03:59:26.214Z,956.07
2016-09-11T04:00:27.216Z,956.09
2016-09-11T04:01:27.198Z,956.05
2016-09-11T04:02:23.927Z,956.06
2016-09-11T04:03:12.772Z,956.05
2016-09-11T04:04:21.484Z,956.06
2016-09-11T04:05:24.802Z,956.10
2016-09-11T04:06:21.499Z,956.15
2016-09-11T04:07:32.973Z,956.10
2016-09-11T04:08:24.688Z,956.13
2016-09-11T04:09:20.150Z,956.18
2016-09-11T04:10:16.615Z,956.14
2016-09-11T04:11:35.698Z,956.16
2016-09-11T04:12:15.917Z,956.19
2016-09-11T04:13:21.838Z,956.20
2016-09-11T04:14:16.960Z,956.25
2016-09-11T04:15:17.879Z,956.22
2016-09-11T04:16:23.518Z,956.25
2016-09-11T04:17:31.316Z,956.25
2016-09-11T04:18:21.900Z,956.26
2016-09-11T04:19:27.114Z,956.26
2016-09-11T04:20:29.136Z,956.23
2016-09-11T04:21:20.179Z,956.24
2016-09-11T04:22:16.326Z,956.26
2016-09-11T04:23:28.999Z,956.26
2016-09-11T04:24:20.838Z,956.25
2016-09-11T04:25:21.232Z,956.27
2016-09-11T04:26:27.924Z,956.25
2016-09-11T04:27:28.619Z,956.27
2016-09-11T04:28:19.410Z,956.29
2016-09-11T04:29:28.726Z,956.30
2016-09-11T04:30:19.732Z,956.31
2016-09-11T04:31:20.568Z,956.27
2016-09-11T04:32:21.186Z,956.32
2016-09-11T04:33:20.917Z,956.32
2016-09-11T04:34:21.005Z,956.33
2016-09-11T04:35:27.046Z,956.33
2016-09-11T04:36:30.645Z,956.34
2016-09-11T04:37:32.275Z,956.35
2016-09-11T04:38:25.822Z,956.37
2016-09-11T04:39:14.702Z,956.36
2016-09-11T04:40:28.542Z,956.40
2016-09-11T04:41:17.971Z,956.41
2016-09-11T04:42:15.885Z,956.45
2016-09-11T04:43:15.834Z,956.50
2016-09-11T04:44:20.174Z,956.49
2016-09-11T04:45:16.054Z,956.47
2016-09-11T04:46:19.475Z,956.50
2016-09-11T04:47:34.171Z,956.50
2016-09-11T04:48:21.604Z,956.51
2016-09-11T04:49:19.769Z,956.53
2016-09-11T04:50:22.102Z,956.51
2016-09-11T04:51:21.792Z,956.53
2016-09-11T04:52:18.871Z,956.53
2016-09-11T04:53:19.491Z,956.50
2016-09-11T04:54:20.013Z,956.55
2016-09-11T04:55:20.222Z,956.53
2016-09-11T04:56:37.124Z,956.55
2016-09-11T04:57:18.700Z,956.55
2016-09-11T04:58:16.218Z,956.58
2016-09-11T04:59:29.201Z,956.59
2016-09-11T05:00:22.835Z,956.62
2016-09-11T05:01:28.269Z,956.63
2016-09-11T05:02:29.026Z,956.63
2016-09-11T05:03:22.695Z,956.61
2016-09-11T05:04:36.529Z,956.61
2016-09-11T05:05:37.000Z,956.63
2016-09-11T05:06:30.856Z,956.62
2016-09-11T05:07:37.797Z,956.64
2016-09-11T05:08:32.002Z,956.68
2016-09-11T05:09:43.991Z,956.64
2016-09-11T05:10:32.741Z,956.68
2016-09-11T05:11:44.808Z,956.69
2016-09-11T05:12:41.619Z,956.72
2016-09-11T05:13:37.442Z,956.68
2016-09-11T05:14:38.783Z,956.73
2016-09-11T05:15:37.880Z,956.77
2016-09-11T05:16:48.194Z,956.74
2016-09-11T05:17:37.457Z,956.76
2016-09-11T05:18:39.625Z,956.75
2016-09-11T05:19:44.643Z,956.80
2016-09-11T05:20:37.572Z,956.83
2016-09-11T05:21:33.573Z,956.81
2016-09-11T05:22:25.793Z,956.76
2016-09-11T05:23:31.499Z,956.80
2016-09-11T05:24:31.163Z,956.80
2016-09-11T05:25:32.179Z,956.80
2016-09-11T05:26:43.628Z,956.80
2016-09-11T05:27:36.971Z,956.85
2016-09-11T05:28:38.701Z,956.87
2016-09-11T05:29:39.168Z,956.83
2016-09-11T05:30:42.976Z,956.89
2016-09-11T05:31:28.887Z,956.86
2016-09-11T05:32:39.370Z,956.83
2016-09-11T05:33:37.295Z,956.87
2016-09-11T05:34:40.119Z,956.87
2016-09-11T05:35:45.530Z,956.87
2016-09-11T05:36:30.780Z,956.85
2016-09-11T05:37:43.910Z,956.88
2016-09-11T05:39:07.976Z,956.86
2016-09-11T05:39:23.792Z,956.85
2016-09-11T05:40:33.768Z,956.87
2016-09-11T05:41:43.318Z,956.85
2016-09-11T05:42:38.205Z,956.89
2016-09-11T05:43:33.702Z,956.87
2016-09-11T05:44:15.699Z,956.88
2016-09-11T05:45:43.856Z,956.90
2016-09-11T05:46:28.738Z,956.92
2016-09-11T05:47:38.667Z,956.90
2016-09-11T05:48:43.897Z,956.93
2016-09-11T05:49:40.498Z,956.90
2016-09-11T05:50:37.750Z,956.93
2016-09-11T05:51:41.698Z,956.92
2016-09-11T05:52:41.495Z,956.96
2016-09-11T05:53:33.668Z,956.98
2016-09-11T05:54:45.225Z,956.96
2016-09-11T05:55:39.017Z,956.99
2016-09-11T05:56:39.277Z,956.99
2016-09-11T05:57:43.315Z,956.99
2016-09-11T05:58:32.375Z,956.95
2016-09-11T05:59:33.034Z,956.98
2016-09-11T06:00:39.118Z,957.00
2016-09-11T06:01:32.728Z,956.96
2016-09-11T06:02:33.692Z,956.96
2016-09-11T06:03:34.265Z,957.02
2016-09-11T06:04:37.677Z,957.03
2016-09-11T06:05:44.032Z,957.06
2016-09-11T06:06:40.098Z,957.04
2016-09-11T06:07:45.044Z,956.99
2016-09-11T06:08:39.543Z,957.01
2016-09-11T06:09:33.035Z,957.01
2016-09-11T06:10:38.958Z,957.01
2016-09-11T06:11:31.545Z,956.99
2016-09-11T06:12:33.659Z,956.99
2016-09-11T06:13:34.843Z,957.03
2016-09-11T06:14:34.273Z,956.99
2016-09-11T06:15:40.426Z,957.02
2016-09-11T06:16:43.539Z,957.05
2016-09-11T06:17:28.232Z,957.01
2016-09-11T06:18:30.899Z,957.10
2016-09-11T06:19:43.552Z,957.11
2016-09-11T06:20:36.396Z,957.07
2016-09-11T06:21:31.028Z,957.11
2016-09-11T06:22:48.360Z,957.12
2016-09-11T06:23:27.703Z,957.15
2016-09-11T06:24:16.300Z,957.12
2016-09-11T06:25:39.349Z,957.10
2016-09-11T06:26:49.419Z,957.12
2016-09-11T06:27:39.574Z,957.10
2016-09-11T06:28:39.246Z,957.12
2016-09-11T06:29:38.906Z,957.17
2016-09-11T06:30:38.710Z,957.15
2016-09-11T06:31:34.065Z,957.14
2016-09-11T06:32:44.749Z,957.16
2016-09-11T06:33:31.854Z,957.22
2016-09-11T06:34:47.372Z,957.23
2016-09-11T06:35:43.938Z,957.22
2016-09-11T06:36:42.238Z,957.26
2016-09-11T06:37:49.257Z,957.24
2016-09-11T06:38:38.154Z,957.24
2016-09-11T06:39:34.708Z,957.29
2016-09-11T06:40:32.956Z,957.26
2016-09-11T06:41:38.959Z,957.27
2016-09-11T06:42:38.754Z,957.29
2016-09-11T06:43:38.823Z,957.29
2016-09-11T06:44:41.889Z,957.29
2016-09-11T06:45:40.419Z,957.28
2016-09-11T06:46:43.369Z,957.32
2016-09-11T06:47:41.533Z,957.28
2016-09-11T06:48:37.997Z,957.32
2016-09-11T06:49:41.818Z,957.28
2016-09-11T06:50:38.853Z,957.30
2016-09-11T06:52:04.665Z,957.34
2016-09-11T06:52:42.862Z,957.30
2016-09-11T06:53:49.159Z,957.31
2016-09-11T06:54:38.875Z,957.28
2016-09-11T06:55:47.429Z,957.30
2016-09-11T06:56:31.468Z,957.34
2016-09-11T06:57:36.926Z,957.36
2016-09-11T06:58:38.284Z,957.37
2016-09-11T06:59:59.882Z,957.33
2016-09-11T07:00:31.480Z,957.39
2016-09-11T07:01:37.401Z,957.41
2016-09-11T07:02:33.529Z,957.40
2016-09-11T07:03:39.690Z,957.38
2016-09-11T07:04:34.006Z,957.41
2016-09-11T07:05:33.231Z,957.49
2016-09-11T07:06:33.170Z,957.46
2016-09-11T07:07:43.022Z,957.49
2016-09-11T07:08:38.224Z,957.51
2016-09-11T07:09:42.476Z,957.48
2016-09-11T07:10:43.649Z,957.50
2016-09-11T07:11:45.613Z,957.48
2016-09-11T07:12:30.467Z,957.45
2016-09-11T07:13:43.507Z,957.48
2016-09-11T07:14:33.802Z,957.52
2016-09-11T07:15:44.637Z,957.46
2016-09-11T07:16:50.504Z,957.46
2016-09-11T07:17:33.922Z,957.50
2016-09-11T07:18:28.024Z,957.55
2016-09-11T07:19:49.726Z,957.49
2016-09-11T07:21:05.210Z,957.51
2016-09-11T07:21:46.446Z,957.53
2016-09-11T07:22:38.591Z,957.55
2016-09-11T07:23:33.097Z,957.58
2016-09-11T07:24:43.039Z,957.58
2016-09-11T07:25:41.089Z,957.58
2016-09-11T07:26:39.366Z,957.59
2016-09-11T07:27:43.125Z,957.54
2016-09-11T07:28:44.007Z,957.56
2016-09-11T07:29:44.926Z,957.56
2016-09-11T07:30:39.526Z,957.55
2016-09-11T07:31:42.274Z,957.58
2016-09-11T07:32:37.538Z,957.61
2016-09-11T07:33:48.563Z,957.61
2016-09-11T07:34:39.087Z,957.59
2016-09-11T07:35:38.229Z,957.61
2016-09-11T07:36:36.806Z,957.65
2016-09-11T07:37:33.432Z,957.63
2016-09-11T07:38:35.049Z,957.69
2016-09-11T07:39:38.780Z,957.72
2016-09-11T07:40:39.393Z,957.71
2016-09-11T07:41:32.879Z,957.68
2016-09-11T07:42:48.927Z,957.64
2016-09-11T07:43:42.018Z,957.64
2016-09-11T07:44:32.659Z,957.66
2016-09-11T07:45:42.511Z,957.68
2016-09-11T07:47:04.393Z,957.67
2016-09-11T07:47:44.862Z,957.68
2016-09-11T07:48:48.837Z,957.65
2016-09-11T07:49:49.745Z,957.70
2016-09-11T07:51:13.313Z,957.71
2016-09-11T07:52:00.875Z,957.68
2016-09-11T07:52:42.045Z,957.69
2016-09-11T07:53:44.503Z,957.72
2016-09-11T07:54:44.248Z,957.71
2016-09-11T07:55:40.496Z,957.71
2016-09-11T07:56:38.223Z,957.73
2016-09-11T07:57:39.628Z,957.77
2016-09-11T07:59:38.989Z,957.76
2016-09-11T08:00:34.189Z,957.80
2016-09-11T08:01:41.173Z,957.77
2016-09-11T08:02:42.228Z,957.82
2016-09-11T08:03:45.841Z,957.75
2016-09-11T08:04:37.886Z,957.76
2016-09-11T08:05:44.891Z,957.81
2016-09-11T08:06:46.209Z,957.80
2016-09-11T08:07:40.867Z,957.80
2016-09-11T08:08:55.851Z,957.83
2016-09-11T08:09:28.110Z,957.81
2016-09-11T08:10:43.780Z,957.86
2016-09-11T08:11:34.173Z,957.83
2016-09-11T08:12:49.948Z,957.85
2016-09-11T08:13:45.866Z,957.82
2016-09-11T08:14:46.882Z,957.83
2016-09-11T08:15:45.174Z,957.77
2016-09-11T08:16:36.266Z,957.81
2016-09-11T08:17:39.904Z,957.82
2016-09-11T08:18:49.795Z,957.81
2016-09-11T08:19:38.953Z,957.83
2016-09-11T08:20:44.389Z,957.82
2016-09-11T08:21:39.415Z,957.79
2016-09-11T08:22:44.036Z,957.82
2016-09-11T08:23:45.094Z,957.81
2016-09-11T08:24:41.014Z,957.81
2016-09-11T08:25:45.512Z,957.88
2016-09-11T08:26:38.067Z,957.81
2016-09-11T08:27:31.621Z,957.82
2016-09-11T08:29:00.032Z,957.85
2016-09-11T08:29:42.478Z,957.84
2016-09-11T08:30:39.837Z,957.81
2016-09-11T08:31:39.622Z,957.82
2016-09-11T08:32:47.451Z,957.81
2016-09-11T08:34:06.844Z,957.83
2016-09-11T08:34:45.976Z,957.82
2016-09-11T08:35:37.507Z,957.82
2016-09-11T08:36:55.357Z,957.87
2016-09-11T08:37:41.541Z,957.82
2016-09-11T08:38:41.965Z,957.79
2016-09-11T08:39:13.156Z,957.83
2016-09-11T08:40:43.750Z,957.84
2016-09-11T08:41:35.179Z,957.81
2016-09-11T08:42:43.541Z,957.81
2016-09-11T08:43:39.098Z,957.81
2016-09-11T08:44:31.629Z,957.83
2016-09-11T08:45:33.337Z,957.80
2016-09-11T08:47:21.145Z,957.82
2016-09-11T08:47:43.206Z,957.81
2016-09-11T08:48:48.125Z,957.82
2016-09-11T08:49:38.721Z,957.86
2016-09-11T08:50:40.211Z,957.84
2016-09-11T08:51:46.002Z,957.82
2016-09-11T08:52:49.830Z,957.84
2016-09-11T08:53:52.434Z,957.86
2016-09-11T08:55:13.174Z,957.85
2016-09-11T08:55:42.077Z,957.86
2016-09-11T08:56:57.945Z,957.88
2016-09-11T08:57:31.583Z,957.89
2016-09-11T08:58:38.985Z,957.90
2016-09-11T08:59:42.859Z,957.86
2016-09-11T09:00:43.554Z,957.86
2016-09-11T09:02:04.892Z,957.88
2016-09-11T09:02:48.736Z,957.91
2016-09-11T09:03:37.486Z,957.91
2016-09-11T09:04:39.764Z,957.91
2016-09-11T09:05:34.924Z,957.92
2016-09-11T09:06:51.229Z,957.95
2016-09-11T09:07:57.493Z,957.91
2016-09-11T09:08:41.653Z,957.90
2016-09-11T09:10:07.630Z,957.91
2016-09-11T09:10:49.239Z,957.94
2016-09-11T09:11:58.231Z,957.94
2016-09-11T09:12:45.875Z,957.97
2016-09-11T09:13:45.747Z,957.94
2016-09-11T09:14:39.741Z,957.97
2016-09-11T09:15:38.624Z,957.95
2016-09-11T09:16:32.908Z,957.93
2016-09-11T09:17:33.687Z,957.96
2016-09-11T09:18:38.767Z,957.94
2016-09-11T09:19:45.562Z,957.96
2016-09-11T09:20:32.896Z,957.97
2016-09-11T09:21:38.182Z,957.95
2016-09-11T09:22:31.178Z,957.93
2016-09-11T09:23:43.277Z,957.95
2016-09-11T09:24:42.035Z,957.95
2016-09-11T09:25:39.176Z,957.93
2016-09-11T09:27:01.441Z,957.90
2016-09-11T09:27:50.744Z,957.90
2016-09-11T09:28:55.815Z,957.93
2016-09-11T09:29:39.049Z,957.94
2016-09-11T09:30:39.850Z,957.95
2016-09-11T09:31:39.372Z,957.96
2016-09-11T09:32:43.744Z,957.98
2016-09-11T09:33:37.946Z,957.99
2016-09-11T09:34:48.474Z,957.92
2016-09-11T09:35:41.553Z,957.95
2016-09-11T09:36:57.598Z,957.94
2016-09-11T09:37:38.537Z,957.94
2016-09-11T09:39:05.425Z,957.93
2016-09-11T09:40:27.487Z,957.98
2016-09-11T09:40:54.419Z,957.95
2016-09-11T09:41:48.837Z,957.99
2016-09-11T09:43:00.175Z,958.00
2016-09-11T09:43:32.027Z,957.95
2016-09-11T09:44:56.694Z,958.05
2016-09-11T09:45:43.709Z,958.01
2016-09-11T09:46:50.315Z,957.97
2016-09-11T09:47:48.103Z,957.97
2016-09-11T09:49:09.224Z,957.92
2016-09-11T09:49:59.610Z,957.95
2016-09-11T09:50:42.041Z,957.94
2016-09-11T09:51:47.609Z,957.95
2016-09-11T09:52:44.558Z,957.90
2016-09-11T09:53:49.969Z,957.94
2016-09-11T09:54:32.419Z,957.91
2016-09-11T09:55:49.495Z,957.90
2016-09-11T09:56:43.672Z,957.92
2016-09-11T09:57:48.733Z,957.93
2016-09-11T09:58:45.145Z,957.90
2016-09-11T09:59:49.838Z,957.88
2016-09-11T10:00:39.060Z,957.90
2016-09-11T10:01:25.532Z,957.90
2016-09-11T10:03:00.929Z,957.88
2016-09-11T10:03:44.014Z,957.89
2016-09-11T10:04:40.630Z,957.84
2016-09-11T10:05:42.931Z,957.87
2016-09-11T10:06:32.203Z,957.84
2016-09-11T10:07:41.834Z,957.88
2016-09-11T10:08:38.895Z,957.85
2016-09-11T10:09:36.441Z,957.84
2016-09-11T10:10:37.998Z,957.86
2016-09-11T10:11:33.579Z,957.81
2016-09-11T10:12:32.928Z,957.83
2016-09-11T10:13:33.073Z,957.79
2016-09-11T10:14:59.789Z,957.78
2016-09-11T10:15:43.094Z,957.84
2016-09-11T10:16:39.752Z,957.85
2016-09-11T10:17:44.082Z,957.84
2016-09-11T10:18:40.504Z,957.84
2016-09-11T10:19:38.363Z,957.80
2016-09-11T10:20:45.290Z,957.82
2016-09-11T10:21:39.330Z,957.82
2016-09-11T10:22:50.338Z,957.80
2016-09-11T10:23:27.099Z,957.78
2016-09-11T10:25:02.339Z,957.77
2016-09-11T10:25:39.114Z,957.80
2016-09-11T10:26:43.413Z,957.75
2016-09-11T10:27:42.578Z,957.77
2016-09-11T10:29:04.580Z,957.77
2016-09-11T10:29:47.867Z,957.77
2016-09-11T10:30:34.150Z,957.78
2016-09-11T10:31:44.193Z,957.75
2016-09-11T10:32:34.245Z,957.74
2016-09-11T10:33:37.280Z,957.76
2016-09-11T10:34:43.362Z,957.73
2016-09-11T10:35:50.279Z,957.75
2016-09-11T10:36:38.615Z,957.71
2016-09-11T10:37:39.608Z,957.74
2016-09-11T10:38:43.838Z,957.73
2016-09-11T10:39:15.197Z,957.74
2016-09-11T10:40:31.819Z,957.73
2016-09-11T10:41:49.265Z,957.71
2016-09-11T10:42:47.867Z,957.72
2016-09-11T10:43:34.164Z,957.76
2016-09-11T10:44:39.245Z,957.75
2016-09-11T10:45:34.851Z,957.73
2016-09-11T10:46:38.750Z,957.67
2016-09-11T10:47:34.397Z,957.72
2016-09-11T10:48:49.154Z,957.70
2016-09-11T10:49:48.189Z,957.72
2016-09-11T10:50:37.402Z,957.72
2016-09-11T10:51:39.430Z,957.72
2016-09-11T10:52:41.591Z,957.69
2016-09-11T10:53:44.171Z,957.67
2016-09-11T10:54:44.257Z,957.71
2016-09-11T10:55:28.403Z,957.69
2016-09-11T10:56:43.623Z,957.72
2016-09-11T10:57:39.695Z,957.68
2016-09-11T10:58:41.009Z,957.72
2016-09-11T10:59:39.285Z,957.68
2016-09-11T11:00:48.621Z,957.67
2016-09-11T11:01:40.540Z,957.64
2016-09-11T11:02:38.446Z,957.66
2016-09-11T11:03:44.570Z,957.67
2016-09-11T11:04:42.199Z,957.66
2016-09-11T11:05:45.747Z,957.63
2016-09-11T11:06:43.325Z,957.66
2016-09-11T11:07:38.384Z,957.63
2016-09-11T11:08:33.017Z,957.62
2016-09-11T11:09:38.919Z,957.65
2016-09-11T11:10:38.754Z,957.62
2016-09-11T11:11:38.174Z,957.63
2016-09-11T11:12:41.030Z,957.64
2016-09-11T11:13:40.056Z,957.69
2016-09-11T11:14:40.145Z,957.66
2016-09-11T11:15:48.272Z,957.63
2016-09-11T11:16:37.700Z,957.61
2016-09-11T11:17:28.274Z,957.61
2016-09-11T11:18:31.252Z,957.61
2016-09-11T11:19:39.191Z,957.61
2016-09-11T11:20:58.634Z,957.60
2016-09-11T11:21:33.196Z,957.56
2016-09-11T11:22:33.050Z,957.59
2016-09-11T11:23:51.968Z,957.57
2016-09-11T11:24:42.819Z,957.57
2016-09-11T11:25:38.968Z,957.58
2016-09-11T11:26:34.286Z,957.59
2016-09-11T11:27:38.524Z,957.54
2016-09-11T11:28:34.060Z,957.56
2016-09-11T11:29:39.269Z,957.53
2016-09-11T11:30:43.922Z,957.59
2016-09-11T11:31:42.957Z,957.52
2016-09-11T11:32:40.794Z,957.55
2016-09-11T11:33:44.387Z,957.52
2016-09-11T11:34:38.449Z,957.49
2016-09-11T11:35:42.159Z,957.50
2016-09-11T11:36:38.830Z,957.53
2016-09-11T11:37:39.863Z,957.49
2016-09-11T11:38:50.059Z,957.49
2016-09-11T11:39:40.033Z,957.47
2016-09-11T11:40:43.968Z,957.44
2016-09-11T11:41:39.123Z,957.43
2016-09-11T11:42:40.186Z,957.45
2016-09-11T11:43:38.714Z,957.42
2016-09-11T11:44:37.697Z,957.40
2016-09-11T11:45:43.972Z,957.40
2016-09-11T11:46:39.136Z,957.39
2016-09-11T11:47:45.163Z,957.39
2016-09-11T11:49:04.348Z,957.36
2016-09-11T11:49:43.962Z,957.38
2016-09-11T11:50:34.476Z,957.36
2016-09-11T11:51:38.452Z,957.36
2016-09-11T11:52:43.228Z,957.39
2016-09-11T11:53:44.526Z,957.38
2016-09-11T11:54:33.030Z,957.37
2016-09-11T11:55:38.793Z,957.35
2016-09-11T11:56:42.229Z,957.39
2016-09-11T11:57:38.798Z,957.38
2016-09-11T11:58:41.642Z,957.38
2016-09-11T11:59:37.765Z,957.36
2016-09-11T12:00:49.234Z,957.36
2016-09-11T12:01:31.743Z,957.33
2016-09-11T12:02:39.577Z,957.35
2016-09-11T12:03:39.304Z,957.35
2016-09-11T12:04:33.539Z,957.37
2016-09-11T12:05:43.108Z,957.33
2016-09-11T12:06:39.140Z,957.34
2016-09-11T12:07:37.926Z,957.39
2016-09-11T12:08:51.635Z,957.37
2016-09-11T12:09:47.733Z,957.37
2016-09-11T12:10:49.177Z,957.41
2016-09-11T12:11:37.639Z,957.32
2016-09-11T12:12:43.996Z,957.36
2016-09-11T12:13:33.851Z,957.33
2016-09-11T12:14:34.707Z,957.25
2016-09-11T12:15:38.811Z,957.31
2016-09-11T12:16:39.568Z,957.32
2016-09-11T12:17:58.891Z,957.25
2016-09-11T12:18:32.472Z,957.28
2016-09-11T12:19:37.010Z,957.21
2016-09-11T12:20:33.913Z,957.24
2016-09-11T12:21:41.492Z,957.20
2016-09-11T12:22:49.035Z,957.20
2016-09-11T12:23:37.445Z,957.19
2016-09-11T12:24:45.061Z,957.20
2016-09-11T12:25:40.596Z,957.20
2016-09-11T12:26:34.613Z,957.20
2016-09-11T12:27:39.420Z,957.17
2016-09-11T12:28:44.385Z,957.17
2016-09-11T12:29:39.814Z,957.21